sensor_id;sensor_type;location;lat;lon;timestamp;pressure;altitude;pressure_sealevel;temperature;humidity
13434;BME280;6789;47.678;9.158;2023-02-19T00:04:22;97502.50;;;9.79;90.98
13434;BME280;6789;47.678;9.158;2023-02-19T00:09:45;97502.72;;;9.77;91.13
13434;BME280;6789;47.678;9.158;2023-02-19T00:15:07;97495.63;;;9.78;90.59
13434;BME280;6789;47.678;9.158;2023-02-19T00:20:34;97497.66;;;9.82;90.30
13434;BME280;6789;47.678;9.158;2023-02-19T00:26:12;97497.69;;;9.76;90.60
13434;BME280;6789;47.678;9.158;2023-02-19T00:31:31;97490.59;;;9.63;90.68
13434;BME280;6789;47.678;9.158;2023-02-19T00:36:41;97493.22;;;9.57;91.18
13434;BME280;6789;47.678;9.158;2023-02-19T00:41:47;97495.19;;;9.42;91.98
13434;BME280;6789;47.678;9.158;2023-02-19T00:46:53;97486.91;;;9.32;92.31
13434;BME280;6789;47.678;9.158;2023-02-19T00:51:46;97484.69;;;9.29;92.06
13434;BME280;6789;47.678;9.158;2023-02-19T00:56:38;97479.84;;;9.26;92.66
13434;BME280;6789;47.678;9.158;2023-02-19T01:01:44;97483.63;;;9.17;92.79
13434;BME280;6789;47.678;9.158;2023-02-19T01:07:05;97485.44;;;9.10;92.92
13434;BME280;6789;47.678;9.158;2023-02-19T01:12:21;97484.78;;;9.02;93.76
13434;BME280;6789;47.678;9.158;2023-02-19T01:17:30;97480.34;;;8.89;94.24
13434;BME280;6789;47.678;9.158;2023-02-19T01:22:37;97479.72;;;8.87;95.04
13434;BME280;6789;47.678;9.158;2023-02-19T01:27:44;97481.28;;;8.75;95.24
13434;BME280;6789;47.678;9.158;2023-02-19T01:33:21;97473.78;;;8.66;95.63
13434;BME280;6789;47.678;9.158;2023-02-19T01:38:27;97471.75;;;8.61;96.05
13434;BME280;6789;47.678;9.158;2023-02-19T01:43:53;97473.38;;;8.62;96.47
13434;BME280;6789;47.678;9.158;2023-02-19T01:49:17;97463.47;;;8.58;96.37
13434;BME280;6789;47.678;9.158;2023-02-19T01:54:30;97455.84;;;8.56;96.89
13434;BME280;6789;47.678;9.158;2023-02-19T01:59:38;97429.28;;;8.59;96.97
13434;BME280;6789;47.678;9.158;2023-02-19T02:05:02;97409.41;;;8.65;96.25
13434;BME280;6789;47.678;9.158;2023-02-19T02:10:09;97411.66;;;8.74;95.72
13434;BME280;6789;47.678;9.158;2023-02-19T02:16:24;97426.97;;;8.77;95.42
13434;BME280;6789;47.678;9.158;2023-02-19T02:38:07;97402.66;;;8.96;94.92
13434;BME280;6789;47.678;9.158;2023-02-19T02:43:26;97421.81;;;9.03;94.46
13434;BME280;6789;47.678;9.158;2023-02-19T02:48:58;97406.13;;;9.03;94.59
13434;BME280;6789;47.678;9.158;2023-02-19T02:54:15;97406.94;;;9.10;93.92
13434;BME280;6789;47.678;9.158;2023-02-19T02:59:47;97405.75;;;9.19;93.67
13434;BME280;6789;47.678;9.158;2023-02-19T03:05:10;97400.53;;;9.25;92.99
13434;BME280;6789;47.678;9.158;2023-02-19T03:11:10;97425.94;;;9.51;92.39
13434;BME280;6789;47.678;9.158;2023-02-19T03:16:42;97416.47;;;9.37;93.20
13434;BME280;6789;47.678;9.158;2023-02-19T03:22:17;97405.56;;;9.33;93.33
13434;BME280;6789;47.678;9.158;2023-02-19T03:27:40;97402.38;;;9.38;94.89
13434;BME280;6789;47.678;9.158;2023-02-19T03:33:14;97403.16;;;9.38;97.05
13434;BME280;6789;47.678;9.158;2023-02-19T03:38:47;97420.47;;;9.39;98.47
13434;BME280;6789;47.678;9.158;2023-02-19T03:44:22;97428.34;;;9.33;98.72
13434;BME280;6789;47.678;9.158;2023-02-19T03:54:38;97406.97;;;9.23;100.00
13434;BME280;6789;47.678;9.158;2023-02-19T04:05:25;97370.53;;;9.22;100.00
13434;BME280;6789;47.678;9.158;2023-02-19T04:10:18;97369.13;;;9.19;100.00
13434;BME280;6789;47.678;9.158;2023-02-19T04:15:17;97376.78;;;9.14;100.00
13434;BME280;6789;47.678;9.158;2023-02-19T04:20:13;97375.97;;;9.07;100.00
13434;BME280;6789;47.678;9.158;2023-02-19T04:25:07;97368.69;;;9.09;100.00
13434;BME280;6789;47.678;9.158;2023-02-19T04:29:58;97353.22;;;9.14;100.00
13434;BME280;6789;47.678;9.158;2023-02-19T04:34:50;97370.72;;;9.07;100.00
13434;BME280;6789;47.678;9.158;2023-02-19T04:39:45;97375.34;;;9.05;100.00
13434;BME280;6789;47.678;9.158;2023-02-19T04:44:36;97391.03;;;9.05;100.00
13434;BME280;6789;47.678;9.158;2023-02-19T04:49:28;97394.06;;;9.15;100.00
13434;BME280;6789;47.678;9.158;2023-02-19T04:54:49;97409.00;;;9.34;100.00
13434;BME280;6789;47.678;9.158;2023-02-19T04:59:55;97419.88;;;9.44;99.54
13434;BME280;6789;47.678;9.158;2023-02-19T05:04:47;97422.06;;;9.34;99.55
13434;BME280;6789;47.678;9.158;2023-02-19T05:09:53;97413.59;;;9.25;100.00
13434;BME280;6789;47.678;9.158;2023-02-19T05:14:59;97414.03;;;9.35;99.81
13434;BME280;6789;47.678;9.158;2023-02-19T05:20:05;97411.00;;;9.38;99.26
13434;BME280;6789;47.678;9.158;2023-02-19T05:25:11;97412.63;;;9.46;99.79
13434;BME280;6789;47.678;9.158;2023-02-19T05:30:17;97419.06;;;9.37;99.78
13434;BME280;6789;47.678;9.158;2023-02-19T05:35:23;97415.47;;;9.51;98.69
13434;BME280;6789;47.678;9.158;2023-02-19T05:40:28;97429.38;;;9.58;98.65
13434;BME280;6789;47.678;9.158;2023-02-19T05:45:35;97440.63;;;9.52;98.19
13434;BME280;6789;47.678;9.158;2023-02-19T05:50:41;97452.13;;;9.51;98.64
13434;BME280;6789;47.678;9.158;2023-02-19T05:55:35;97459.97;;;9.51;98.93
13434;BME280;6789;47.678;9.158;2023-02-19T06:00:43;97451.31;;;9.44;99.15
13434;BME280;6789;47.678;9.158;2023-02-19T06:06:19;97461.78;;;9.44;99.53
13434;BME280;6789;47.678;9.158;2023-02-19T06:11:25;97472.63;;;9.34;100.00
13434;BME280;6789;47.678;9.158;2023-02-19T06:16:24;97463.56;;;9.37;99.57
13434;BME280;6789;47.678;9.158;2023-02-19T06:21:30;97482.28;;;9.34;100.00
13434;BME280;6789;47.678;9.158;2023-02-19T06:26:24;97485.50;;;9.36;99.82
13434;BME280;6789;47.678;9.158;2023-02-19T06:31:30;97490.31;;;9.32;99.98
13434;BME280;6789;47.678;9.158;2023-02-19T06:36:36;97495.56;;;9.26;100.00
13434;BME280;6789;47.678;9.158;2023-02-19T06:41:42;97506.00;;;9.20;100.00
13434;BME280;6789;47.678;9.158;2023-02-19T06:46:48;97514.03;;;9.18;100.00
13434;BME280;6789;47.678;9.158;2023-02-19T06:51:47;97520.06;;;9.12;100.00
13434;BME280;6789;47.678;9.158;2023-02-19T06:56:53;97514.63;;;9.14;100.00
13434;BME280;6789;47.678;9.158;2023-02-19T07:01:51;97522.47;;;9.14;100.00
13434;BME280;6789;47.678;9.158;2023-02-19T07:06:57;97536.34;;;9.08;100.00
13434;BME280;6789;47.678;9.158;2023-02-19T07:12:05;97540.16;;;9.12;100.00
13434;BME280;6789;47.678;9.158;2023-02-19T07:17:10;97540.34;;;9.04;100.00
13434;BME280;6789;47.678;9.158;2023-02-19T07:22:16;97552.16;;;8.93;100.00
13434;BME280;6789;47.678;9.158;2023-02-19T07:27:12;97553.38;;;8.97;100.00
13434;BME280;6789;47.678;9.158;2023-02-19T07:32:17;97554.97;;;8.92;100.00
13434;BME280;6789;47.678;9.158;2023-02-19T07:37:24;97574.50;;;8.89;100.00
13434;BME280;6789;47.678;9.158;2023-02-19T07:42:30;97569.84;;;8.91;100.00
13434;BME280;6789;47.678;9.158;2023-02-19T07:47:36;97573.59;;;9.10;100.00
13434;BME280;6789;47.678;9.158;2023-02-19T07:52:43;97585.25;;;9.14;100.00
13434;BME280;6789;47.678;9.158;2023-02-19T07:57:48;97592.38;;;9.26;100.00
13434;BME280;6789;47.678;9.158;2023-02-19T08:02:54;97594.22;;;9.32;100.00
13434;BME280;6789;47.678;9.158;2023-02-19T08:07:53;97604.81;;;9.58;100.00
13434;BME280;6789;47.678;9.158;2023-02-19T08:13:00;97625.22;;;9.82;98.41
13434;BME280;6789;47.678;9.158;2023-02-19T08:18:15;97627.06;;;9.88;97.86
13434;BME280;6789;47.678;9.158;2023-02-19T08:23:22;97621.06;;;10.13;96.43
13434;BME280;6789;47.678;9.158;2023-02-19T08:28:29;97622.31;;;10.23;95.89
13434;BME280;6789;47.678;9.158;2023-02-19T08:33:35;97631.59;;;10.39;95.20
13434;BME280;6789;47.678;9.158;2023-02-19T08:38:41;97645.50;;;10.52;94.08
13434;BME280;6789;47.678;9.158;2023-02-19T08:43:35;97631.41;;;10.53;93.03
13434;BME280;6789;47.678;9.158;2023-02-19T08:48:41;97651.38;;;10.54;93.08
13434;BME280;6789;47.678;9.158;2023-02-19T08:53:47;97647.94;;;10.60;92.46
13434;BME280;6789;47.678;9.158;2023-02-19T08:58:53;97658.06;;;10.63;92.40
13434;BME280;6789;47.678;9.158;2023-02-19T09:03:45;97667.91;;;10.80;91.85
13434;BME280;6789;47.678;9.158;2023-02-19T09:08:51;97662.88;;;10.79;91.41
13434;BME280;6789;47.678;9.158;2023-02-19T09:13:57;97667.31;;;10.72;91.13
13434;BME280;6789;47.678;9.158;2023-02-19T09:19:03;97655.81;;;10.73;91.82
13434;BME280;6789;47.678;9.158;2023-02-19T09:24:09;97643.50;;;10.73;92.03
13434;BME280;6789;47.678;9.158;2023-02-19T09:29:15;97648.16;;;10.78;91.99
13434;BME280;6789;47.678;9.158;2023-02-19T09:34:21;97657.03;;;10.96;90.96
13434;BME280;6789;47.678;9.158;2023-02-19T09:39:27;97655.59;;;11.13;90.50
13434;BME280;6789;47.678;9.158;2023-02-19T09:44:43;97656.16;;;11.28;89.21
13434;BME280;6789;47.678;9.158;2023-02-19T09:49:59;97678.94;;;11.40;88.27
13434;BME280;6789;47.678;9.158;2023-02-19T09:55:34;97672.06;;;11.39;87.44
13434;BME280;6789;47.678;9.158;2023-02-19T10:00:42;97679.97;;;11.46;87.45
13434;BME280;6789;47.678;9.158;2023-02-19T10:05:52;97670.25;;;11.46;87.26
13434;BME280;6789;47.678;9.158;2023-02-19T10:11:01;97687.19;;;11.70;86.99
13434;BME280;6789;47.678;9.158;2023-02-19T10:16:16;97685.25;;;11.96;84.30
13434;BME280;6789;47.678;9.158;2023-02-19T10:21:27;97689.91;;;11.94;84.92
13434;BME280;6789;47.678;9.158;2023-02-19T10:27:28;97692.56;;;11.88;84.50
13434;BME280;6789;47.678;9.158;2023-02-19T10:32:35;97684.75;;;11.75;84.21
13434;BME280;6789;47.678;9.158;2023-02-19T10:37:49;97675.00;;;11.82;84.33
13434;BME280;6789;47.678;9.158;2023-02-19T10:43:03;97671.81;;;11.73;84.45
13434;BME280;6789;47.678;9.158;2023-02-19T10:48:27;97682.78;;;12.01;83.82
13434;BME280;6789;47.678;9.158;2023-02-19T10:53:47;97700.28;;;12.26;82.29
13434;BME280;6789;47.678;9.158;2023-02-19T10:59:22;97704.16;;;12.24;82.62
13434;BME280;6789;47.678;9.158;2023-02-19T11:04:32;97697.16;;;12.05;82.25
13434;BME280;6789;47.678;9.158;2023-02-19T11:09:49;97708.78;;;11.78;82.89
13434;BME280;6789;47.678;9.158;2023-02-19T11:15:19;97703.75;;;11.77;82.97
13434;BME280;6789;47.678;9.158;2023-02-19T11:20:28;97688.22;;;11.56;82.33
13434;BME280;6789;47.678;9.158;2023-02-19T11:25:34;97673.88;;;11.58;83.10
13434;BME280;6789;47.678;9.158;2023-02-19T11:30:44;97675.72;;;11.51;83.54
13434;BME280;6789;47.678;9.158;2023-02-19T11:53:32;97649.00;;;11.67;80.73
13434;BME280;6789;47.678;9.158;2023-02-19T12:04:41;97644.31;;;12.13;78.20
13434;BME280;6789;47.678;9.158;2023-02-19T12:10:20;97632.53;;;12.22;77.96
13434;BME280;6789;47.678;9.158;2023-02-19T12:16:17;97642.25;;;12.52;76.84
13434;BME280;6789;47.678;9.158;2023-02-19T12:27:43;97647.19;;;12.67;75.00
13434;BME280;6789;47.678;9.158;2023-02-19T12:38:44;97667.41;;;12.42;75.23
13434;BME280;6789;47.678;9.158;2023-02-19T12:44:06;97663.00;;;12.36;73.82
13434;BME280;6789;47.678;9.158;2023-02-19T12:49:35;97666.47;;;12.30;74.50
13434;BME280;6789;47.678;9.158;2023-02-19T12:54:52;97673.22;;;12.13;75.28
13434;BME280;6789;47.678;9.158;2023-02-19T13:05:34;97684.19;;;12.04;74.69
13434;BME280;6789;47.678;9.158;2023-02-19T13:11:17;97687.66;;;12.04;73.91
13434;BME280;6789;47.678;9.158;2023-02-19T13:16:28;97691.34;;;11.90;73.81
13434;BME280;6789;47.678;9.158;2023-02-19T13:21:38;97690.50;;;12.03;73.65
13434;BME280;6789;47.678;9.158;2023-02-19T13:27:27;97670.63;;;12.44;71.17
13434;BME280;6789;47.678;9.158;2023-02-19T13:38:19;97663.78;;;12.36;68.69
13434;BME280;6789;47.678;9.158;2023-02-19T13:43:35;97665.53;;;12.80;67.61
13434;BME280;6789;47.678;9.158;2023-02-19T13:48:44;97664.41;;;12.93;65.24
13434;BME280;6789;47.678;9.158;2023-02-19T13:59:44;97663.34;;;13.01;63.72
13434;BME280;6789;47.678;9.158;2023-02-19T14:10:12;97670.75;;;13.10;62.92
13434;BME280;6789;47.678;9.158;2023-02-19T14:15:48;97659.22;;;12.80;62.90
13434;BME280;6789;47.678;9.158;2023-02-19T14:21:21;97655.00;;;12.80;63.22
13434;BME280;6789;47.678;9.158;2023-02-19T14:26:34;97655.09;;;12.36;64.54
13434;BME280;6789;47.678;9.158;2023-02-19T14:31:44;97669.56;;;12.20;65.99
13434;BME280;6789;47.678;9.158;2023-02-19T14:36:58;97657.38;;;12.26;66.33
13434;BME280;6789;47.678;9.158;2023-02-19T14:42:22;97640.25;;;12.48;65.72
13434;BME280;6789;47.678;9.158;2023-02-19T14:47:44;97651.16;;;12.51;65.60
13434;BME280;6789;47.678;9.158;2023-02-19T14:53:14;97652.03;;;12.39;65.82
13434;BME280;6789;47.678;9.158;2023-02-19T14:58:30;97653.91;;;12.32;66.76
13434;BME280;6789;47.678;9.158;2023-02-19T15:03:40;97660.06;;;12.19;68.10
13434;BME280;6789;47.678;9.158;2023-02-19T15:08:56;97670.88;;;12.05;67.97
13434;BME280;6789;47.678;9.158;2023-02-19T15:14:06;97675.22;;;12.24;67.91
13434;BME280;6789;47.678;9.158;2023-02-19T15:19:26;97681.78;;;12.02;68.01
13434;BME280;6789;47.678;9.158;2023-02-19T15:24:43;97683.63;;;12.02;67.62
13434;BME280;6789;47.678;9.158;2023-02-19T15:29:52;97695.97;;;11.95;68.30
13434;BME280;6789;47.678;9.158;2023-02-19T15:35:19;97694.47;;;11.74;68.82
13434;BME280;6789;47.678;9.158;2023-02-19T15:40:30;97703.16;;;11.68;69.36
13434;BME280;6789;47.678;9.158;2023-02-19T15:45:43;97701.56;;;11.67;69.38
13434;BME280;6789;47.678;9.158;2023-02-19T15:51:05;97708.22;;;11.63;69.45
13434;BME280;6789;47.678;9.158;2023-02-19T15:56:28;97696.50;;;11.46;67.96
13434;BME280;6789;47.678;9.158;2023-02-19T16:01:39;97703.22;;;11.30;68.16
13434;BME280;6789;47.678;9.158;2023-02-19T16:06:59;97709.50;;;11.22;68.77
13434;BME280;6789;47.678;9.158;2023-02-19T16:12:31;97720.81;;;11.10;68.88
13434;BME280;6789;47.678;9.158;2023-02-19T16:17:44;97723.22;;;10.98;69.69
13434;BME280;6789;47.678;9.158;2023-02-19T16:23:15;97743.41;;;10.91;69.77
13434;BME280;6789;47.678;9.158;2023-02-19T16:28:49;97751.47;;;10.90;70.03
13434;BME280;6789;47.678;9.158;2023-02-19T16:34:22;97742.78;;;10.83;70.29
13434;BME280;6789;47.678;9.158;2023-02-19T16:39:41;97746.44;;;10.69;70.66
13434;BME280;6789;47.678;9.158;2023-02-19T16:44:48;97753.06;;;10.65;70.96
13434;BME280;6789;47.678;9.158;2023-02-19T16:49:59;97772.03;;;10.67;70.92
13434;BME280;6789;47.678;9.158;2023-02-19T16:55:14;97784.53;;;10.65;70.80
13434;BME280;6789;47.678;9.158;2023-02-19T17:00:58;97783.94;;;10.76;70.17
13434;BME280;6789;47.678;9.158;2023-02-19T17:06:06;97801.13;;;10.85;70.36
13434;BME280;6789;47.678;9.158;2023-02-19T17:11:33;97809.63;;;10.87;71.15
13434;BME280;6789;47.678;9.158;2023-02-19T17:16:50;97815.22;;;10.71;72.25
13434;BME280;6789;47.678;9.158;2023-02-19T17:21:56;97800.31;;;10.71;71.51
13434;BME280;6789;47.678;9.158;2023-02-19T17:27:04;97798.88;;;10.56;72.16
13434;BME280;6789;47.678;9.158;2023-02-19T17:32:13;97789.75;;;10.52;70.50
13434;BME280;6789;47.678;9.158;2023-02-19T17:37:21;97793.75;;;10.42;70.43
13434;BME280;6789;47.678;9.158;2023-02-19T17:47:31;97813.88;;;10.22;71.67
13434;BME280;6789;47.678;9.158;2023-02-19T17:52:39;97807.38;;;10.18;71.50
13434;BME280;6789;47.678;9.158;2023-02-19T17:57:49;97800.13;;;10.13;72.01
13434;BME280;6789;47.678;9.158;2023-02-19T18:02:55;97816.63;;;10.14;72.04
13434;BME280;6789;47.678;9.158;2023-02-19T18:08:16;97824.31;;;10.15;72.83
13434;BME280;6789;47.678;9.158;2023-02-19T18:13:22;97832.34;;;10.07;72.94
13434;BME280;6789;47.678;9.158;2023-02-19T18:18:28;97849.66;;;10.08;73.42
13434;BME280;6789;47.678;9.158;2023-02-19T18:23:35;97852.75;;;10.18;73.30
13434;BME280;6789;47.678;9.158;2023-02-19T18:28:41;97863.91;;;10.33;72.98
13434;BME280;6789;47.678;9.158;2023-02-19T18:33:47;97878.78;;;10.26;74.50
13434;BME280;6789;47.678;9.158;2023-02-19T18:38:55;97890.44;;;10.17;74.13
13434;BME280;6789;47.678;9.158;2023-02-19T18:43:52;97886.13;;;10.03;75.21
13434;BME280;6789;47.678;9.158;2023-02-19T18:48:58;97891.00;;;9.86;75.76
13434;BME280;6789;47.678;9.158;2023-02-19T18:54:04;97900.72;;;9.92;75.60
13434;BME280;6789;47.678;9.158;2023-02-19T18:59:12;97899.50;;;9.88;75.96
13434;BME280;6789;47.678;9.158;2023-02-19T19:04:18;97903.34;;;9.92;75.16
13434;BME280;6789;47.678;9.158;2023-02-19T19:09:25;97910.97;;;9.87;75.69
13434;BME280;6789;47.678;9.158;2023-02-19T19:14:18;97903.59;;;9.69;76.79
13434;BME280;6789;47.678;9.158;2023-02-19T19:19:24;97902.03;;;9.54;77.33
13434;BME280;6789;47.678;9.158;2023-02-19T19:24:30;97905.28;;;9.56;77.34
13434;BME280;6789;47.678;9.158;2023-02-19T19:29:50;97904.78;;;9.67;76.68
13434;BME280;6789;47.678;9.158;2023-02-19T19:34:59;97898.66;;;9.81;75.62
13434;BME280;6789;47.678;9.158;2023-02-19T19:40:08;97907.94;;;9.62;76.51
13434;BME280;6789;47.678;9.158;2023-02-19T19:45:18;97897.00;;;9.52;77.20
13434;BME280;6789;47.678;9.158;2023-02-19T19:50:26;97911.53;;;9.55;77.52
13434;BME280;6789;47.678;9.158;2023-02-19T19:55:38;97906.06;;;9.50;77.81
13434;BME280;6789;47.678;9.158;2023-02-19T20:00:44;97893.94;;;9.49;77.78
13434;BME280;6789;47.678;9.158;2023-02-19T20:05:51;97904.22;;;9.50;78.11
13434;BME280;6789;47.678;9.158;2023-02-19T20:10:57;97920.28;;;9.68;77.06
13434;BME280;6789;47.678;9.158;2023-02-19T20:16:03;97917.00;;;9.60;77.49
13434;BME280;6789;47.678;9.158;2023-02-19T20:21:11;97925.88;;;9.86;76.40
13434;BME280;6789;47.678;9.158;2023-02-19T20:26:25;97931.88;;;9.80;76.85
13434;BME280;6789;47.678;9.158;2023-02-19T20:31:32;97933.81;;;9.72;77.49
13434;BME280;6789;47.678;9.158;2023-02-19T20:36:43;97944.81;;;9.61;78.51
13434;BME280;6789;47.678;9.158;2023-02-19T20:41:50;97943.38;;;9.58;78.21
13434;BME280;6789;47.678;9.158;2023-02-19T20:47:00;97933.47;;;9.54;78.44
13434;BME280;6789;47.678;9.158;2023-02-19T20:52:13;97931.03;;;9.52;79.19
13434;BME280;6789;47.678;9.158;2023-02-19T20:57:20;97943.25;;;9.66;78.05
13434;BME280;6789;47.678;9.158;2023-02-19T21:02:26;97943.47;;;9.44;78.83
13434;BME280;6789;47.678;9.158;2023-02-19T21:07:35;97941.59;;;9.38;79.04
13434;BME280;6789;47.678;9.158;2023-02-19T21:12:41;97944.38;;;9.36;79.37
13434;BME280;6789;47.678;9.158;2023-02-19T21:17:48;97942.56;;;9.37;79.74
13434;BME280;6789;47.678;9.158;2023-02-19T21:22:54;97936.72;;;9.35;79.72
13434;BME280;6789;47.678;9.158;2023-02-19T21:28:01;97936.91;;;9.33;79.15
13434;BME280;6789;47.678;9.158;2023-02-19T21:33:07;97942.50;;;9.30;79.59
13434;BME280;6789;47.678;9.158;2023-02-19T21:38:13;97935.22;;;9.26;79.60
13434;BME280;6789;47.678;9.158;2023-02-19T21:43:19;97944.06;;;9.25;79.99
13434;BME280;6789;47.678;9.158;2023-02-19T21:48:25;97940.47;;;9.26;80.43
13434;BME280;6789;47.678;9.158;2023-02-19T21:53:34;97949.19;;;9.33;80.89
13434;BME280;6789;47.678;9.158;2023-02-19T21:58:42;97956.91;;;9.20;81.55
13434;BME280;6789;47.678;9.158;2023-02-19T22:03:48;97953.91;;;9.23;81.45
13434;BME280;6789;47.678;9.158;2023-02-19T22:08:55;97958.44;;;9.15;81.70
13434;BME280;6789;47.678;9.158;2023-02-19T22:14:01;97955.63;;;9.16;81.61
13434;BME280;6789;47.678;9.158;2023-02-19T22:19:08;97957.25;;;9.17;82.09
13434;BME280;6789;47.678;9.158;2023-02-19T22:24:17;97950.94;;;9.12;82.35
13434;BME280;6789;47.678;9.158;2023-02-19T22:29:24;97953.94;;;9.09;82.92
13434;BME280;6789;47.678;9.158;2023-02-19T22:34:38;97956.38;;;9.10;83.32
13434;BME280;6789;47.678;9.158;2023-02-19T22:39:45;97968.03;;;9.08;83.36
13434;BME280;6789;47.678;9.158;2023-02-19T22:45:00;97973.94;;;9.16;83.18
13434;BME280;6789;47.678;9.158;2023-02-19T22:50:07;97962.88;;;9.14;83.69
13434;BME280;6789;47.678;9.158;2023-02-19T22:55:15;97960.56;;;9.25;83.24
13434;BME280;6789;47.678;9.158;2023-02-19T23:00:21;97961.59;;;9.10;84.10
13434;BME280;6789;47.678;9.158;2023-02-19T23:05:28;97946.19;;;9.01;84.73
13434;BME280;6789;47.678;9.158;2023-02-19T23:10:34;97950.63;;;9.00;85.08
13434;BME280;6789;47.678;9.158;2023-02-19T23:15:42;97957.13;;;9.04;84.75
13434;BME280;6789;47.678;9.158;2023-02-19T23:20:49;97967.59;;;9.04;85.05
13434;BME280;6789;47.678;9.158;2023-02-19T23:25:58;97984.66;;;9.00;84.83
13434;BME280;6789;47.678;9.158;2023-02-19T23:31:04;97989.00;;;8.93;85.76
13434;BME280;6789;47.678;9.158;2023-02-19T23:36:19;97981.66;;;9.03;85.25
13434;BME280;6789;47.678;9.158;2023-02-19T23:41:28;97986.59;;;9.13;84.92
13434;BME280;6789;47.678;9.158;2023-02-19T23:46:34;97975.81;;;9.22;84.25
13434;BME280;6789;47.678;9.158;2023-02-19T23:51:40;97969.34;;;9.18;84.97
13434;BME280;6789;47.678;9.158;2023-02-19T23:56:47;97959.09;;;9.02;85.44
